Time;durP1;ratioP1;P1;durP2;ratioP2;P2;SDS_P1;SDS_P2;PMS_P1;PMS_P2;Temp;Humidity;BMP_temperature;BMP_pressure;BME280_temperature;BME280_humidity;BME280_pressure;Samples;Min_cycle;Max_cycle;Signal;HPM_P1;HPM_P2
2022/07/23 00:00:33;;;;;;;3.80;2.53;;;;;;;15.49;89.23;101886.28;4995352;28;20077;-75
2022/07/23 00:02:58;;;;;;;5.00;2.55;;;;;;;15.70;88.38;101888.00;4995455;28;20034;-75
2022/07/23 00:05:24;;;;;;;6.10;2.50;;;;;;;15.51;88.53;101899.91;4993649;28;20030;-75
2022/07/23 00:07:49;;;;;;;3.85;2.17;;;;;;;15.48;88.99;101900.31;4993967;28;20120;-74
2022/07/23 00:10:15;;;;;;;3.45;2.30;;;;;;;15.55;89.21;101885.50;4995440;28;20038;-74
2022/07/23 00:12:41;;;;;;;4.68;2.22;;;;;;;15.54;88.66;101889.91;4995246;28;20030;-75
2022/07/23 00:15:08;;;;;;;6.22;2.58;;;;;;;15.44;89.07;101886.03;4995275;28;20026;-75
2022/07/23 00:17:33;;;;;;;3.97;2.25;;;;;;;15.41;89.23;101889.03;4993742;28;20022;-75
2022/07/23 00:19:59;;;;;;;4.88;2.40;;;;;;;15.54;88.49;101882.09;4993713;28;20053;-75
2022/07/23 00:22:24;;;;;;;3.50;2.25;;;;;;;15.25;89.75;101890.16;4993832;28;20029;-74
2022/07/23 00:24:50;;;;;;;5.03;2.47;;;;;;;15.19;89.42;101883.91;4995312;28;20053;-75
2022/07/23 00:27:15;;;;;;;5.75;2.88;;;;;;;15.03;90.38;101886.78;4993611;28;20060;-75
2022/07/23 00:29:40;;;;;;;7.70;3.10;;;;;;;15.05;90.11;101877.00;4994813;28;20478;-75
2022/07/23 00:32:06;;;;;;;6.57;3.22;;;;;;;15.11;89.96;101876.22;4993683;28;20022;-74
2022/07/23 00:34:31;;;;;;;5.00;2.90;;;;;;;15.07;90.14;101874.97;4994855;28;20030;-75
2022/07/23 00:36:56;;;;;;;5.90;3.30;;;;;;;14.96;90.36;101878.09;4994865;28;20738;-75
2022/07/23 00:39:22;;;;;;;4.00;3.05;;;;;;;14.92;90.82;101869.06;4993649;28;20117;-75
2022/07/23 00:41:48;;;;;;;4.80;3.35;;;;;;;14.92;90.88;101864.66;4993431;28;20037;-75
2022/07/23 00:44:21;;;;;;;8.07;3.40;;;;;;;14.96;90.92;101867.69;4993320;28;20026;-74
2022/07/23 00:46:52;;;;;;;3.75;2.80;;;;;;;14.91;90.50;101867.47;4994722;28;20030;-74
2022/07/23 00:49:18;;;;;;;4.25;2.80;;;;;;;14.91;90.79;101870.88;4993654;28;20022;-74
2022/07/23 00:51:44;;;;;;;7.15;2.58;;;;;;;14.89;90.93;101867.66;4994565;28;20058;-75
2022/07/23 00:54:09;;;;;;;4.07;2.50;;;;;;;14.89;91.21;101862.44;4993346;28;20080;-75
2022/07/23 00:56:34;;;;;;;5.70;2.75;;;;;;;14.89;90.96;101863.25;4993202;28;20026;-75
2022/07/23 00:59:00;;;;;;;5.85;2.78;;;;;;;14.87;90.29;101860.06;4993194;28;20410;-75
2022/07/23 01:01:25;;;;;;;7.18;2.72;;;;;;;14.87;91.02;101861.81;4994552;28;20031;-75
2022/07/23 01:03:51;;;;;;;4.88;2.85;;;;;;;14.86;90.47;101861.03;4994394;28;20492;-75
2022/07/23 01:06:16;;;;;;;4.75;2.65;;;;;;;14.93;90.78;101857.66;4992515;28;20030;-75
2022/07/23 01:08:42;;;;;;;4.90;2.70;;;;;;;14.79;90.34;101857.59;4993226;28;20121;-75
2022/07/23 01:11:08;;;;;;;9.88;3.92;;;;;;;14.61;91.63;101865.81;4993211;28;20076;-76
2022/07/23 01:13:34;;;;;;;12.00;4.55;;;;;;;14.47;92.85;101864.06;4993121;28;20424;-75
2022/07/23 01:15:59;;;;;;;11.70;4.35;;;;;;;14.63;92.42;101856.03;4994270;28;20030;-75
2022/07/23 01:18:24;;;;;;;11.48;4.40;;;;;;;14.55;92.07;101837.16;4994243;28;20061;-75
2022/07/23 01:20:50;;;;;;;9.85;4.30;;;;;;;14.75;91.59;101842.53;4994312;28;20454;-75
2022/07/23 01:23:15;;;;;;;7.63;3.15;;;;;;;14.73;91.24;101839.28;4994350;28;20030;-75
2022/07/23 01:25:54;;;;;;;6.15;3.25;;;;;;;14.57;90.24;101850.78;4994524;28;20027;-75
2022/07/23 01:28:19;;;;;;;6.80;2.80;;;;;;;14.48;91.71;101844.09;4993040;28;20042;-75
2022/07/23 01:30:45;;;;;;;4.35;2.42;;;;;;;14.38;92.08;101832.16;4993090;28;20027;-75
2022/07/23 01:33:11;;;;;;;3.80;2.42;;;;;;;14.52;91.25;101835.72;4994444;28;20026;-75
2022/07/23 01:35:36;;;;;;;4.10;2.45;;;;;;;14.58;90.76;101840.19;4994219;28;20041;-75
2022/07/23 01:38:02;;;;;;;6.85;2.60;;;;;;;14.40;90.64;101845.00;4993878;28;20023;-75
2022/07/23 01:40:27;;;;;;;3.47;2.30;;;;;;;14.33;91.43;101839.75;4992746;28;20049;-75
2022/07/23 01:42:52;;;;;;;3.40;2.40;;;;;;;14.39;91.19;101833.00;4993011;28;20030;-74
2022/07/23 01:45:17;;;;;;;6.55;2.70;;;;;;;14.33;91.49;101820.75;4994342;28;20108;-74
2022/07/23 01:47:43;;;;;;;3.95;2.28;;;;;;;14.54;90.58;101831.16;4992764;28;20363;-75
2022/07/23 01:50:08;;;;;;;4.32;2.20;;;;;;;14.26;90.46;101836.25;4993853;28;20030;-75
2022/07/23 01:52:34;;;;;;;6.05;2.45;;;;;;;14.06;92.25;101835.25;4993940;28;20537;-75
2022/07/23 01:54:59;;;;;;;5.07;2.60;;;;;;;14.12;92.91;101842.31;4993694;28;20062;-75
2022/07/23 01:57:24;;;;;;;3.70;2.33;;;;;;;14.15;92.27;101845.34;4993911;28;20040;-75
2022/07/23 01:59:50;;;;;;;4.80;2.60;;;;;;;14.22;92.36;101848.03;4994096;28;20026;-75
2022/07/23 02:02:16;;;;;;;7.68;2.88;;;;;;;14.27;92.11;101837.06;4993994;28;20439;-75
2022/07/23 02:04:42;;;;;;;8.95;2.90;;;;;;;14.27;92.48;101839.66;4993817;28;20366;-74
2022/07/23 02:07:07;;;;;;;8.65;2.70;;;;;;;14.22;92.52;101835.03;4993943;28;20031;-75
2022/07/23 02:09:32;;;;;;;4.15;2.28;;;;;;;14.31;92.55;101833.91;4993771;28;20050;-75
2022/07/23 02:11:59;;;;;;;4.82;2.50;;;;;;;14.36;91.91;101828.19;4992669;28;20019;-75
2022/07/23 02:14:25;;;;;;;4.53;2.50;;;;;;;13.99;92.56;101830.00;4992548;28;20116;-75
2022/07/23 02:16:51;;;;;;;4.97;2.25;;;;;;;13.92;93.43;101835.09;4993886;28;20477;-75
2022/07/23 02:19:16;;;;;;;3.83;2.60;;;;;;;14.02;94.00;101834.03;4997164;28;20073;-75
2022/07/23 02:21:41;;;;;;;4.30;2.58;;;;;;;13.83;92.79;101807.63;4995997;28;20030;-75
2022/07/23 02:24:07;;;;;;;3.28;2.20;;;;;;;14.09;93.40;101835.69;4996079;28;20026;-75
2022/07/23 02:26:34;;;;;;;6.53;2.50;;;;;;;14.16;93.68;101825.38;4997318;28;20034;-74
2022/07/23 02:29:00;;;;;;;4.28;2.38;;;;;;;14.21;92.96;101829.03;4996099;28;20501;-75
2022/07/23 02:31:25;;;;;;;5.57;2.80;;;;;;;14.20;93.35;101824.00;4997156;28;20053;-74
2022/07/23 02:33:51;;;;;;;2.92;2.45;;;;;;;13.97;92.99;101824.19;4997489;28;20435;-75
2022/07/23 02:36:16;;;;;;;5.22;2.60;;;;;;;13.87;93.54;101816.69;4997158;28;20032;-75
2022/07/23 02:38:41;;;;;;;3.75;2.45;;;;;;;13.89;93.77;101829.47;4997417;28;20022;-76
2022/07/23 02:41:07;;;;;;;4.53;2.63;;;;;;;13.85;94.17;101833.44;4997055;28;20027;-76
2022/07/23 02:43:32;;;;;;;4.03;2.40;;;;;;;14.03;93.72;101846.03;4997193;28;20166;-75
2022/07/23 02:45:57;;;;;;;5.22;2.38;;;;;;;13.91;93.16;101850.91;4995948;28;20030;-75
2022/07/23 02:48:22;;;;;;;7.55;2.38;;;;;;;13.74;94.07;101852.91;4997227;28;20057;-75
2022/07/23 02:50:48;;;;;;;5.22;2.60;;;;;;;13.89;94.34;101839.88;4997174;28;20018;-75
2022/07/23 02:53:13;;;;;;;4.40;2.45;;;;;;;13.94;93.63;101853.94;4996757;28;20469;-75
2022/07/23 02:55:38;;;;;;;3.33;2.17;;;;;;;13.80;93.98;101859.16;4996771;28;20061;-75
2022/07/23 02:58:04;;;;;;;4.88;2.72;;;;;;;13.90;93.85;101859.69;4995498;28;20030;-75
2022/07/23 03:00:29;;;;;;;5.15;2.40;;;;;;;13.82;93.22;101857.19;4996521;28;20029;-75
2022/07/23 03:02:54;;;;;;;3.75;2.50;;;;;;;13.90;94.25;101855.28;4996321;28;20133;-75
2022/07/23 03:05:19;;;;;;;3.40;2.17;;;;;;;13.89;93.67;101853.66;4996608;28;20033;-75
2022/07/23 03:07:45;;;;;;;5.13;2.40;;;;;;;13.91;93.61;101856.91;4996646;28;20026;-75
2022/07/23 03:10:10;;;;;;;5.03;2.55;;;;;;;13.84;94.03;101866.41;4996600;28;20061;-75
2022/07/23 03:12:35;;;;;;;3.03;2.15;;;;;;;13.72;95.10;101858.28;4995148;28;20069;-75
2022/07/23 03:15:01;;;;;;;6.85;2.00;;;;;;;13.78;94.26;101867.13;4995215;28;20018;-75
2022/07/23 03:17:26;;;;;;;5.35;2.42;;;;;;;13.85;94.69;101869.81;4996082;28;20030;-76
2022/07/23 03:19:51;;;;;;;3.95;2.50;;;;;;;13.74;94.52;101871.88;4996413;28;20076;-74
2022/07/23 03:22:16;;;;;;;4.75;2.20;;;;;;;13.75;94.98;101838.91;4994945;28;20033;-74
2022/07/23 03:24:54;;;;;;;4.10;2.33;;;;;;;13.98;94.32;101864.75;4995268;28;20033;-74
2022/07/23 03:27:26;;;;;;;5.13;2.30;;;;;;;13.82;95.53;101863.19;4996330;28;20026;-74
2022/07/23 03:29:53;;;;;;;3.50;2.35;;;;;;;14.01;95.04;101859.19;4994765;28;20410;-75
2022/07/23 03:32:19;;;;;;;6.72;2.50;;;;;;;14.12;94.34;101855.31;4996212;28;20462;-75
2022/07/23 03:34:44;;;;;;;4.35;2.28;;;;;;;14.37;93.92;101866.19;4995993;28;20028;-75
2022/07/23 03:37:10;;;;;;;4.47;2.38;;;;;;;14.17;93.20;101864.19;4995872;28;20025;-74
2022/07/23 03:39:35;;;;;;;4.68;2.50;;;;;;;14.20;93.65;101865.59;4995784;28;20022;-75
2022/07/23 03:42:00;;;;;;;5.00;2.15;;;;;;;14.29;93.45;101859.28;4996071;28;20062;-75
2022/07/23 03:44:26;;;;;;;6.55;2.42;;;;;;;14.41;92.11;101860.44;4994612;28;20057;-74
2022/07/23 03:46:51;;;;;;;3.40;2.10;;;;;;;14.51;92.32;101862.72;4994484;28;20481;-71
2022/07/23 03:49:17;;;;;;;3.30;2.20;;;;;;;14.43;92.36;101858.44;4995814;28;20022;-72
2022/07/23 03:51:42;;;;;;;3.08;2.20;;;;;;;14.37;92.94;101856.56;4995913;28;20022;-72
2022/07/23 03:54:07;;;;;;;4.53;2.47;;;;;;;14.27;92.92;101845.69;4994324;28;20022;-72
2022/07/23 03:56:33;;;;;;;6.03;2.15;;;;;;;14.16;93.05;101848.78;4994301;28;20023;-72
2022/07/23 03:58:58;;;;;;;4.15;2.15;;;;;;;14.17;92.92;101839.97;4994436;28;20026;-72
2022/07/23 04:01:23;;;;;;;4.68;2.28;;;;;;;14.19;92.48;101840.59;4995648;28;20374;-72
2022/07/23 04:03:49;;;;;;;3.50;2.30;;;;;;;14.12;91.54;101842.31;4994495;28;20027;-73
2022/07/23 04:06:14;;;;;;;4.85;2.35;;;;;;;14.15;91.38;101834.16;4994151;28;20117;-73
2022/07/23 04:08:39;;;;;;;12.23;2.60;;;;;;;14.14;91.66;101835.16;4995459;28;20521;-73
2022/07/23 04:11:04;;;;;;;4.85;2.30;;;;;;;14.08;91.53;101836.69;4993936;28;20038;-73
2022/07/23 04:13:30;;;;;;;4.57;2.25;;;;;;;14.03;91.38;101840.81;4994176;28;20026;-72
2022/07/23 04:15:55;;;;;;;8.05;2.40;;;;;;;13.91;91.98;101846.50;4995248;28;20043;-72
2022/07/23 04:18:23;;;;;;;4.47;2.30;;;;;;;13.93;92.17;101847.13;4993734;28;20213;-72
2022/07/23 04:20:50;;;;;;;3.17;2.15;;;;;;;13.95;92.63;101847.75;4995307;28;20157;-73
2022/07/23 04:23:16;;;;;;;3.72;2.38;;;;;;;14.00;92.45;101855.00;4995096;28;20113;-72
2022/07/23 04:25:41;;;;;;;2.80;2.13;;;;;;;14.14;91.97;101855.94;4993704;28;20482;-73
2022/07/23 04:28:07;;;;;;;5.57;2.25;;;;;;;14.10;91.42;101855.50;4993720;28;20081;-73
2022/07/23 04:30:32;;;;;;;4.13;2.40;;;;;;;14.05;92.29;101859.66;4995191;28;20026;-73
2022/07/23 04:32:57;;;;;;;5.47;2.40;;;;;;;14.12;92.06;101852.72;4994928;28;20026;-73
2022/07/23 04:35:23;;;;;;;4.28;2.60;;;;;;;14.19;92.04;101856.22;4995165;28;20065;-73
2022/07/23 04:37:48;;;;;;;4.53;2.45;;;;;;;14.36;91.87;101860.19;4993734;28;20092;-73
2022/07/23 04:40:13;;;;;;;4.70;2.50;;;;;;;14.34;91.83;101864.75;4994910;28;20022;-74
2022/07/23 04:42:39;;;;;;;8.57;2.45;;;;;;;14.49;91.42;101861.28;4995049;28;20048;-73
2022/07/23 04:45:05;;;;;;;4.90;2.40;;;;;;;14.58;91.31;101862.78;4994959;28;20506;-74
2022/07/23 04:47:31;;;;;;;5.55;2.28;;;;;;;14.65;91.39;101871.47;4994716;28;20105;-72
2022/07/23 04:49:57;;;;;;;3.40;2.22;;;;;;;14.59;90.80;101875.63;4994861;28;20069;-72
2022/07/23 04:52:22;;;;;;;5.63;2.60;;;;;;;14.59;91.42;101877.44;4994769;28;20034;-72
2022/07/23 04:54:47;;;;;;;5.53;2.50;;;;;;;14.57;91.92;101876.81;4994360;28;20033;-73
2022/07/23 04:57:13;;;;;;;4.55;2.60;;;;;;;14.64;92.07;101877.66;4993415;28;20033;-72
2022/07/23 04:59:38;;;;;;;6.05;2.60;;;;;;;14.82;91.48;101880.63;4993529;28;20045;-72
2022/07/23 05:02:04;;;;;;;4.55;2.42;;;;;;;14.87;90.93;101857.44;4994428;28;20034;-73
2022/07/23 05:04:29;;;;;;;9.35;2.70;;;;;;;15.10;90.02;101877.22;4995666;28;20535;-73
2022/07/23 05:06:54;;;;;;;11.30;3.13;;;;;;;15.23;89.23;101882.50;4994646;28;20018;-72
2022/07/23 05:09:19;;;;;;;6.15;2.90;;;;;;;15.24;88.32;101852.88;4994082;28;20023;-73
2022/07/23 05:11:45;;;;;;;5.50;2.30;;;;;;;15.48;88.01;101864.63;4994395;28;20026;-73
2022/07/23 05:14:12;;;;;;;4.78;2.45;;;;;;;15.50;87.46;101867.81;4993086;28;20026;-73
2022/07/23 05:16:37;;;;;;;5.70;2.50;;;;;;;15.53;87.28;101867.44;4994531;28;20030;-72
2022/07/23 05:19:03;;;;;;;3.03;2.10;;;;;;;15.53;86.70;101879.66;4994095;28;20049;-73
2022/07/23 05:21:28;;;;;;;5.93;2.10;;;;;;;15.64;86.65;101878.31;4999694;28;20038;-72
2022/07/23 05:23:54;;;;;;;5.15;2.00;;;;;;;15.64;85.93;101878.31;4993235;28;20117;-73
2022/07/23 05:26:19;;;;;;;5.22;2.00;;;;;;;15.73;85.34;101874.59;4993301;28;20030;-72
2022/07/23 05:28:44;;;;;;;8.25;2.40;;;;;;;15.73;84.77;101856.34;4995096;28;20354;-73
2022/07/23 05:31:10;;;;;;;3.42;2.00;;;;;;;15.92;84.90;101875.66;4995167;28;20023;-73
2022/07/23 05:33:35;;;;;;;5.88;2.08;;;;;;;16.10;83.90;101875.13;4996286;28;20033;-73
2022/07/23 05:36:04;;;;;;;3.65;2.20;;;;;;;16.37;83.52;101879.41;4995154;28;20160;-72
2022/07/23 05:38:30;;;;;;;3.05;1.80;;;;;;;16.73;80.96;101893.06;4994124;28;20022;-72
2022/07/23 05:40:55;;;;;;;4.40;1.90;;;;;;;17.09;80.21;101903.09;4992497;28;20474;-73
2022/07/23 05:43:20;;;;;;;6.97;2.13;;;;;;;17.08;79.62;101894.47;4995017;28;20474;-74
2022/07/23 05:45:46;;;;;;;4.63;1.70;;;;;;;17.20;78.01;101899.09;4997934;28;20050;-71
2022/07/23 05:48:11;;;;;;;3.83;1.63;;;;;;;17.19;76.48;101894.88;4995552;28;20031;-73
2022/07/23 05:50:36;;;;;;;2.53;1.55;;;;;;;17.01;77.00;101882.44;4992688;28;20402;-72
2022/07/23 05:53:02;;;;;;;5.47;1.67;;;;;;;17.23;77.93;101890.84;5000460;28;20057;-73
2022/07/23 05:55:28;;;;;;;3.78;1.60;;;;;;;17.23;77.53;101894.25;4999418;28;20068;-73
2022/07/23 05:57:56;;;;;;;7.18;1.55;;;;;;;17.91;75.01;101901.72;4997947;28;20026;-72
2022/07/23 06:00:21;;;;;;;4.13;1.48;;;;;;;24.65;52.96;101905.75;4996498;28;20455;-72
2022/07/23 06:02:46;;;;;;;2.60;1.33;;;;;;;26.46;46.10;101899.72;4998359;28;20086;-73
2022/07/23 06:05:12;;;;;;;7.75;1.38;;;;;;;27.22;43.74;101895.34;4997154;28;20026;-73
2022/07/23 06:07:37;;;;;;;6.22;1.42;;;;;;;28.26;42.02;101903.19;4996528;28;20390;-73
2022/07/23 06:10:03;;;;;;;2.00;1.10;;;;;;;28.46;41.04;101901.47;4997627;28;20035;-73
2022/07/23 06:12:29;;;;;;;4.65;1.00;;;;;;;28.35;40.22;101906.84;4998061;28;20034;-73
2022/07/23 06:14:54;;;;;;;1.80;0.98;;;;;;;28.75;39.19;101904.88;4995955;28;20022;-73
2022/07/23 06:17:19;;;;;;;4.17;1.20;;;;;;;28.60;39.62;101898.91;4997791;28;20026;-72
2022/07/23 06:19:45;;;;;;;3.63;1.03;;;;;;;29.15;37.55;101899.41;4996354;28;20301;-73
2022/07/23 06:22:10;;;;;;;3.90;1.00;;;;;;;29.46;36.55;101892.59;4997369;28;20765;-73
2022/07/23 06:24:35;;;;;;;2.13;1.10;;;;;;;30.12;36.16;101896.16;4996287;28;20289;-73
2022/07/23 06:27:01;;;;;;;4.60;1.00;;;;;;;30.05;36.48;101903.72;4997335;28;20086;-73
2022/07/23 06:29:26;;;;;;;3.30;1.20;;;;;;;29.40;35.80;101899.03;4996169;28;20382;-73
2022/07/23 06:31:52;;;;;;;2.00;0.90;;;;;;;29.66;35.60;101907.53;4996554;28;20085;-74
2022/07/23 06:34:17;;;;;;;4.28;1.13;;;;;;;29.72;36.67;101910.88;4997615;28;20026;-74
2022/07/23 06:36:42;;;;;;;2.45;0.70;;;;;;;30.17;34.31;101921.13;4996062;28;20454;-74
2022/07/23 06:39:08;;;;;;;4.78;1.00;;;;;;;30.39;34.11;101905.31;4998062;28;20450;-74
2022/07/23 06:41:33;;;;;;;3.00;0.98;;;;;;;30.93;32.10;101900.31;5006925;28;20062;-74
2022/07/23 06:43:58;;;;;;;2.10;0.90;;;;;;;30.93;30.62;101916.31;5004875;28;20544;-72
2022/07/23 06:46:25;;;;;;;4.28;1.25;;;;;;;30.91;30.77;101907.84;4995553;28;20022;-73
2022/07/23 06:48:50;;;;;;;2.47;0.90;;;;;;;31.35;29.65;101907.19;4995545;28;20529;-73
2022/07/23 06:51:16;;;;;;;3.15;0.80;;;;;;;31.04;29.00;101912.34;4996695;28;20042;-73
2022/07/23 06:53:41;;;;;;;2.15;1.10;;;;;;;28.83;34.05;101913.31;4996718;28;20022;-74
2022/07/23 06:56:06;;;;;;;2.35;1.00;;;;;;;24.43;40.34;101906.66;4996660;28;20525;-73
2022/07/23 06:58:32;;;;;;;3.42;0.80;;;;;;;23.34;45.94;101915.53;4996892;28;20030;-73
2022/07/23 07:00:57;;;;;;;2.05;0.93;;;;;;;22.18;48.46;101924.84;4996686;28;20114;-74
2022/07/23 07:03:23;;;;;;;3.05;0.90;;;;;;;21.30;52.01;101912.84;4994285;28;20034;-73
2022/07/23 07:05:49;;;;;;;3.28;0.80;;;;;;;22.47;50.60;101920.34;4996701;28;20030;-73
2022/07/23 07:08:15;;;;;;;2.15;0.88;;;;;;;22.06;52.18;101918.78;4995234;28;20066;-74
2022/07/23 07:10:40;;;;;;;2.95;1.08;;;;;;;23.37;49.89;101921.13;4996063;28;20449;-72
2022/07/23 07:13:05;;;;;;;4.07;1.02;;;;;;;23.70;46.78;101915.94;4996482;28;20362;-73
2022/07/23 07:15:31;;;;;;;2.10;0.90;;;;;;;22.29;51.29;101912.63;4994910;28;20030;-73
2022/07/23 07:17:56;;;;;;;4.78;1.08;;;;;;;21.94;51.31;101918.84;4996197;28;20050;-73
2022/07/23 07:20:21;;;;;;;4.13;1.00;;;;;;;21.63;51.49;101923.50;4996699;28;20228;-72
2022/07/23 07:22:47;;;;;;;2.53;1.00;;;;;;;22.45;50.44;101932.94;4996610;28;20037;-72
2022/07/23 07:25:12;;;;;;;2.30;0.90;;;;;;;22.77;51.84;101927.13;4995568;28;20029;-73
2022/07/23 07:27:37;;;;;;;5.38;1.05;;;;;;;23.54;47.75;101933.44;4995139;28;20050;-72
2022/07/23 07:30:04;;;;;;;4.90;1.10;;;;;;;23.48;47.40;101931.78;4996358;28;20034;-73
2022/07/23 07:32:32;;;;;;;3.28;1.10;;;;;;;23.32;47.03;101934.22;4994900;28;20093;-72
2022/07/23 07:34:57;;;;;;;2.60;1.00;;;;;;;23.60;47.26;101927.19;4996130;28;20105;-73
2022/07/23 07:37:22;;;;;;;5.38;1.13;;;;;;;21.48;49.86;101931.09;4994813;28;20546;-73
2022/07/23 07:39:48;;;;;;;2.13;1.10;;;;;;;22.55;48.54;101945.47;4996095;28;20114;-72
2022/07/23 07:42:13;;;;;;;2.33;0.93;;;;;;;23.22;47.69;101941.19;4995107;28;20049;-72
2022/07/23 07:44:38;;;;;;;5.45;1.10;;;;;;;23.63;47.54;101948.59;4996229;28;20280;-73
2022/07/23 07:47:04;;;;;;;3.20;0.90;;;;;;;23.53;47.35;101950.31;4995780;28;20422;-73
2022/07/23 07:49:29;;;;;;;2.45;0.90;;;;;;;23.36;47.29;101947.72;4995981;28;20476;-72
2022/07/23 07:51:54;;;;;;;2.88;1.10;;;;;;;23.86;45.04;101944.13;4994561;28;20019;-73
2022/07/23 07:54:20;;;;;;;2.65;1.00;;;;;;;23.67;47.99;101940.97;4995443;28;20393;-73
2022/07/23 07:56:45;;;;;;;1.90;0.88;;;;;;;24.27;45.63;101939.25;4994688;28;20065;-73
2022/07/23 07:59:11;;;;;;;2.08;0.98;;;;;;;24.69;44.65;101944.66;4995762;28;20524;-73
2022/07/23 08:01:36;;;;;;;3.72;1.10;;;;;;;24.25;44.64;101944.75;4994082;28;20026;-74
2022/07/23 08:04:02;;;;;;;2.75;0.88;;;;;;;24.04;45.42;101956.97;4994419;28;20493;-73
2022/07/23 08:06:27;;;;;;;3.35;1.30;;;;;;;24.08;45.23;101962.56;4994358;28;20026;-73
2022/07/23 08:08:52;;;;;;;3.88;1.00;;;;;;;24.35;43.63;101953.84;4994239;28;20487;-73
2022/07/23 08:11:18;;;;;;;4.93;1.08;;;;;;;23.67;46.31;101956.81;4994556;28;20080;-74
2022/07/23 08:13:44;;;;;;;2.58;0.90;;;;;;;24.49;43.62;101958.50;4993906;28;20085;-74
2022/07/23 08:16:10;;;;;;;3.47;1.00;;;;;;;24.65;43.89;101951.47;4995061;28;20034;-74
2022/07/23 08:18:35;;;;;;;3.58;1.02;;;;;;;24.12;44.13;101953.09;4995256;28;20046;-73
2022/07/23 08:21:00;;;;;;;2.20;0.93;;;;;;;24.99;44.00;101961.75;4995033;28;20348;-74
2022/07/23 08:23:27;;;;;;;3.15;1.27;;;;;;;24.92;43.21;101958.56;4993786;28;20359;-73
2022/07/23 08:25:52;;;;;;;1.90;0.90;;;;;;;24.79;42.65;101956.34;4994080;28;20027;-73
2022/07/23 08:28:18;;;;;;;2.78;1.13;;;;;;;25.42;41.20;101954.59;4993750;28;20122;-73
2022/07/23 08:30:45;;;;;;;2.00;0.85;;;;;;;24.94;42.20;101967.78;4994977;28;20034;-73
2022/07/23 08:33:13;;;;;;;3.00;0.88;;;;;;;24.78;42.62;101960.81;4994918;28;20466;-73
2022/07/23 08:35:50;;;;;;;2.28;0.80;;;;;;;25.41;42.49;101953.03;4993711;28;20026;-74
2022/07/23 08:38:17;;;;;;;2.58;0.98;;;;;;;25.18;42.21;101956.88;4994060;28;20052;-73
2022/07/23 08:40:45;;;;;;;2.05;0.70;;;;;;;24.17;43.71;101947.88;4993882;28;20030;-75
2022/07/23 08:43:12;;;;;;;1.83;0.90;;;;;;;24.40;44.13;101952.06;4995312;28;20581;-74
2022/07/23 08:45:43;;;;;;;2.45;0.93;;;;;;;25.25;41.95;101951.34;4995090;28;20018;-74
2022/07/23 08:48:16;;;;;;;1.45;0.82;;;;;;;25.30;43.00;101954.03;4995113;28;20059;-74
2022/07/23 08:50:47;;;;;;;4.60;1.00;;;;;;;25.39;41.43;101926.00;4993674;28;20030;-73
2022/07/23 08:53:13;;;;;;;2.40;0.90;;;;;;;24.52;41.24;101959.84;4996312;28;20386;-72
2022/07/23 08:55:39;;;;;;;2.55;0.90;;;;;;;26.08;40.61;101954.03;4995816;28;20085;-73
2022/07/23 08:58:05;;;;;;;2.95;0.70;;;;;;;24.49;40.24;101958.50;4995399;28;20034;-72
2022/07/23 09:00:31;;;;;;;3.17;0.90;;;;;;;24.91;40.75;101960.38;4993790;28;20454;-72
2022/07/23 09:02:56;;;;;;;3.67;1.00;;;;;;;25.57;39.17;101952.00;4995138;28;20030;-72
2022/07/23 09:05:21;;;;;;;2.03;0.70;;;;;;;25.27;40.34;101954.53;4994918;28;20550;-73
2022/07/23 09:08:09;;;;;;;1.65;0.60;;;;;;;26.00;39.77;101960.63;4994503;28;20030;-73
2022/07/23 09:10:57;;;;;;;3.10;1.00;;;;;;;25.05;41.44;101958.09;4994240;28;20029;-73
2022/07/23 09:13:29;;;;;;;2.80;0.95;;;;;;;26.01;40.36;101962.25;4995942;28;20100;-73
2022/07/23 09:15:59;;;;;;;3.20;0.90;;;;;;;25.17;39.85;101964.00;4995293;28;20018;-73
2022/07/23 09:18:32;;;;;;;2.97;0.88;;;;;;;24.47;42.00;101963.22;4994877;28;20494;-73
2022/07/23 09:21:10;;;;;;;1.63;0.70;;;;;;;25.42;39.69;101959.91;4996532;28;20370;-72
2022/07/23 09:23:45;;;;;;;2.70;0.88;;;;;;;24.20;41.97;101954.50;4995127;28;20026;-72
2022/07/23 09:26:18;;;;;;;2.72;0.93;;;;;;;23.63;42.72;101961.78;4994911;28;20034;-73
2022/07/23 09:28:51;;;;;;;;;;;;;;;23.19;45.04;101963.59;4996204;28;20037;-73
2022/07/23 09:31:16;;;;;;;2.08;0.88;;;;;;;24.53;42.16;101966.72;4995855;28;19914;-72
2022/07/23 09:33:42;;;;;;;2.42;0.95;;;;;;;25.50;41.20;101958.63;4995978;28;20026;-73
2022/07/23 09:36:09;;;;;;;1.80;0.90;;;;;;;25.94;40.22;101966.19;4995821;28;20106;-73
2022/07/23 09:38:46;;;;;;;5.13;0.77;;;;;;;25.96;40.51;101961.44;4999687;28;20045;-72
2022/07/23 09:41:13;;;;;;;2.83;0.90;;;;;;;26.60;39.31;101970.78;5005739;28;20027;-72
2022/07/23 09:43:38;;;;;;;1.52;0.90;;;;;;;26.42;39.03;101970.22;5009168;28;20049;-74
2022/07/23 09:46:16;;;;;;;1.45;0.68;;;;;;;26.41;38.77;101968.63;5004423;28;20466;-78
2022/07/23 09:48:42;;;;;;;2.70;0.90;;;;;;;26.12;39.01;101960.38;5004922;28;20128;-73
2022/07/23 09:51:07;;;;;;;3.35;0.93;;;;;;;27.03;38.36;101966.75;5005986;28;20018;-73
2022/07/23 09:53:32;;;;;;;1.77;0.70;;;;;;;26.18;37.61;101958.53;5004397;28;20066;-80
2022/07/23 09:56:00;;;;;;;3.67;1.17;;;;;;;26.08;38.77;101962.75;5006901;28;20027;-75
2022/07/23 09:58:26;;;;;;;1.73;0.60;;;;;;;26.54;36.94;101969.97;5006625;28;20033;-76
2022/07/23 10:00:52;;;;;;;2.28;0.70;;;;;;;25.53;39.72;101955.44;5007144;28;20023;-73
2022/07/23 10:03:19;;;;;;;1.90;0.80;;;;;;;25.64;39.24;101957.06;4997448;28;20027;-72
2022/07/23 10:05:45;;;;;;;2.88;1.10;;;;;;;26.82;37.48;101965.19;4996584;28;20030;-72
2022/07/23 10:08:17;;;;;;;3.17;0.90;;;;;;;27.85;37.45;101966.44;4996950;28;20030;-74
2022/07/23 10:10:45;;;;;;;;;;;;;;;27.59;35.36;101963.09;4996118;28;20427;-72
2022/07/23 10:15:54;;;;;;;1.83;0.93;;;;;;;25.97;37.53;101960.38;4996297;28;20077;-73
2022/07/23 10:18:20;;;;;;;1.42;0.98;;;;;;;25.42;38.31;101960.69;4994416;28;20074;-72
2022/07/23 10:20:48;;;;;;;2.50;0.90;;;;;;;25.23;38.79;101961.38;4993972;28;20058;-70
2022/07/23 10:23:34;;;;;;;2.63;0.80;;;;;;;25.44;37.85;101957.78;4994969;28;20023;-73
2022/07/23 10:26:24;;;;;;;2.38;0.93;;;;;;;25.52;39.01;101959.13;4993586;28;20038;-75
2022/07/23 10:29:12;;;;;;;2.22;1.13;;;;;;;25.51;38.92;101952.25;4994292;28;20073;-77
2022/07/23 10:32:06;;;;;;;1.98;1.02;;;;;;;28.22;36.39;101951.84;4994802;28;20029;-74
2022/07/23 10:34:40;;;;;;;3.00;1.10;;;;;;;28.18;35.49;101959.59;4994342;28;20544;-75
2022/07/23 10:37:26;;;;;;;4.63;1.00;;;;;;;27.33;36.42;101955.25;4994390;28;20088;-75
2022/07/23 10:40:09;;;;;;;2.78;1.00;;;;;;;27.29;35.89;101964.03;4997476;28;20110;-75
2022/07/23 10:42:35;;;;;;;2.08;0.88;;;;;;;27.13;37.30;101961.41;5003251;28;20394;-77
2022/07/23 10:45:01;;;;;;;1.85;0.70;;;;;;;27.14;37.76;101949.72;5005829;28;20105;-79
2022/07/23 10:47:42;;;;;;;1.33;0.63;;;;;;;28.13;35.78;101947.13;5008634;28;20069;-78
2022/07/23 10:50:27;;;;;;;2.42;1.05;;;;;;;27.56;36.00;101948.50;5007834;28;20082;-76
2022/07/23 10:53:05;;;;;;;4.75;1.10;;;;;;;28.12;35.86;101945.56;4998170;28;20061;-75
2022/07/23 10:55:30;;;;;;;2.70;1.08;;;;;;;27.68;35.77;101942.91;4996650;28;20022;-75
2022/07/23 10:57:55;;;;;;;2.10;0.93;;;;;;;28.45;36.34;101935.22;4996382;28;20080;-73
2022/07/23 11:00:26;;;;;;;1.55;0.80;;;;;;;28.35;36.01;101937.94;4997788;28;20030;-75
2022/07/23 11:02:54;;;;;;;2.55;0.75;;;;;;;27.82;36.55;101941.25;4997473;28;20030;-75
2022/07/23 11:05:22;;;;;;;5.47;1.33;;;;;;;28.79;34.71;101948.44;4995777;28;20502;-74
2022/07/23 11:08:03;;;;;;;3.42;1.00;;;;;;;28.76;34.67;101946.34;4995397;28;20382;-75
2022/07/23 11:11:06;;;;;;;1.23;0.77;;;;;;;28.73;35.75;101949.56;4995934;28;20466;-75
2022/07/23 11:13:40;;;;;;;1.30;0.80;;;;;;;28.55;35.30;101937.78;4995934;28;20042;-75
2022/07/23 11:16:12;;;;;;;4.15;1.02;;;;;;;28.42;34.62;101925.13;5000780;28;20038;-75
2022/07/23 11:18:43;;;;;;;2.05;1.00;;;;;;;28.82;34.62;101944.44;5011490;28;20055;-76
2022/07/23 11:21:26;;;;;;;2.90;1.23;;;;;;;28.10;36.09;101934.41;5012014;28;20038;-75
2022/07/23 11:24:06;;;;;;;3.83;1.10;;;;;;;26.73;36.95;101941.09;5006651;28;20101;-76
2022/07/23 11:26:43;;;;;;;3.28;1.10;;;;;;;27.24;37.42;101938.31;4995584;28;20026;-75
2022/07/23 11:29:27;;;;;;;2.97;1.00;;;;;;;28.45;36.55;101932.53;4996720;28;20030;-75